Time;durP1;ratioP1;P1;durP2;ratioP2;P2;SDS_P1;SDS_P2;PMS_P1;PMS_P2;Temp;Humidity;BMP_temperature;BMP_pressure;BME280_temperature;BME280_humidity;BME280_pressure;Samples;Min_cycle;Max_cycle;Signal;HPM_P1;HPM_P2
2023/06/04 00:01:48;;;;;;;4.87;1.60;;;15.00;67.70;;;;;;10228603;28;20884;-68
2023/06/04 00:06:51;;;;;;;5.67;2.00;;;14.90;67.90;;;;;;10229317;28;20211;-70
2023/06/04 00:11:52;;;;;;;1.83;1.53;;;14.90;68.00;;;;;;10220698;28;20648;-68
2023/06/04 00:16:53;;;;;;;4.93;1.80;;;14.80;68.00;;;;;;10222923;28;20231;-69
2023/06/04 00:21:54;;;;;;;3.97;2.17;;;14.80;68.00;;;;;;10260693;28;20240;-69
2023/06/04 00:26:55;;;;;;;6.33;2.50;;;14.80;68.00;;;;;;10221156;28;20251;-70
2023/06/04 00:31:55;;;;;;;4.13;1.77;;;14.80;68.20;;;;;;10221394;28;20322;-69
2023/06/04 00:36:56;;;;;;;4.10;1.60;;;14.70;68.30;;;;;;10216232;28;20256;-69
2023/06/04 00:41:57;;;;;;;8.23;1.60;;;14.60;68.60;;;;;;10221640;28;20234;-70
2023/06/04 00:46:57;;;;;;;3.00;1.70;;;14.50;68.70;;;;;;10218189;28;20228;-68
2023/06/04 00:51:58;;;;;;;6.37;1.90;;;14.50;68.90;;;;;;10215594;28;20235;-68
2023/06/04 00:56:59;;;;;;;3.10;1.57;;;14.40;69.00;;;;;;10226702;28;20721;-70
2023/06/04 01:02:09;;;;;;;1.53;1.40;;;14.30;68.70;;;;;;10224825;28;20316;-70
2023/06/04 01:07:12;;;;;;;2.60;1.40;;;14.40;68.50;;;;;;10230143;28;20808;-70
2023/06/04 01:12:13;;;;;;;6.27;2.50;;;14.30;68.20;;;;;;10212124;28;20240;-69
2023/06/04 01:17:19;;;;;;;6.77;2.83;;;14.40;67.90;;;;;;10222418;28;20239;-69
2023/06/04 01:22:36;;;;;;;13.27;4.10;;;14.40;68.70;;;;;;10220490;28;20228;-69
2023/06/04 01:27:37;;;;;;;9.90;3.90;;;14.30;68.30;;;;;;10226764;28;20380;-68
2023/06/04 01:32:38;;;;;;;15.33;5.20;;;14.30;68.50;;;;;;10226063;28;20234;-70
2023/06/04 01:37:38;;;;;;;14.07;5.53;;;14.20;68.70;;;;;;10233487;28;20285;-70
2023/06/04 01:42:40;;;;;;;16.70;5.23;;;14.10;69.00;;;;;;10219037;28;20243;-69
2023/06/04 01:47:40;;;;;;;16.57;6.50;;;14.10;69.00;;;;;;10225896;28;20230;-69
2023/06/04 01:52:41;;;;;;;21.80;6.47;;;14.10;68.90;;;;;;10239659;28;20231;-69
2023/06/04 01:57:47;;;;;;;13.33;5.03;;;14.00;68.60;;;;;;10223838;28;20852;-70
2023/06/04 02:02:50;;;;;;;19.43;5.77;;;14.00;68.80;;;;;;10226416;28;20293;-69
2023/06/04 02:07:51;;;;;;;8.90;4.03;;;14.00;69.10;;;;;;10221489;28;20269;-69
2023/06/04 02:13:00;;;;;;;10.93;4.20;;;13.90;69.10;;;;;;10224858;28;20662;-71
2023/06/04 02:18:16;;;;;;;13.03;5.23;;;13.80;69.10;;;;;;10229228;28;20234;-70
2023/06/04 02:23:19;;;;;;;22.07;7.70;;;13.80;69.60;;;;;;10222624;28;20227;-69
2023/06/04 02:28:20;;;;;;;16.30;6.23;;;13.80;69.20;;;;;;10224200;28;20292;-69
2023/06/04 02:33:21;;;;;;;8.80;3.37;;;13.80;69.30;;;;;;10217676;28;20242;-68
2023/06/04 02:38:21;;;;;;;2.70;1.60;;;13.70;69.50;;;;;;10222689;28;20233;-69
2023/06/04 02:43:22;;;;;;;5.23;1.77;;;13.70;69.90;;;;;;10219562;28;20777;-68
2023/06/04 02:48:22;;;;;;;5.17;2.43;;;13.60;70.10;;;;;;10221176;28;20227;-68
2023/06/04 02:53:23;;;;;;;4.80;2.10;;;13.50;69.80;;;;;;10218665;28;20289;-68
2023/06/04 02:58:25;;;;;;;7.17;2.63;;;13.50;70.00;;;;;;10222365;28;20258;-68
2023/06/04 03:03:26;;;;;;;10.17;3.80;;;13.50;70.10;;;;;;10224672;28;20250;-68
2023/06/04 03:08:27;;;;;;;12.53;4.77;;;13.50;70.60;;;;;;10235025;28;20241;-69
2023/06/04 03:13:27;;;;;;;9.50;3.80;;;13.40;70.50;;;;;;10224311;28;20243;-70
2023/06/04 03:18:28;;;;;;;16.17;4.53;;;13.30;70.90;;;;;;10224007;28;20826;-69
2023/06/04 03:23:29;;;;;;;12.47;4.40;;;13.30;70.80;;;;;;10222829;28;20227;-69
2023/06/04 03:28:31;;;;;;;11.47;4.33;;;13.30;70.90;;;;;;10216633;28;20698;-69
2023/06/04 03:33:32;;;;;;;16.17;4.97;;;13.40;71.20;;;;;;10222327;28;20236;-68
2023/06/04 03:38:32;;;;;;;5.73;2.63;;;13.40;71.10;;;;;;10221105;28;20242;-69
2023/06/04 03:43:33;;;;;;;5.50;2.60;;;13.30;70.70;;;;;;10215052;28;20242;-69
2023/06/04 03:48:34;;;;;;;7.63;2.93;;;13.30;70.80;;;;;;10234411;28;20219;-68
2023/06/04 03:53:34;;;;;;;5.80;2.83;;;13.30;71.10;;;;;;10222170;28;20243;-68
2023/06/04 03:58:36;;;;;;;5.60;2.17;;;13.40;70.70;;;;;;10221433;28;20328;-69
2023/06/04 04:03:37;;;;;;;3.67;1.83;;;13.50;70.30;;;;;;10213828;28;20282;-69
2023/06/04 04:08:42;;;;;;;3.13;1.50;;;13.50;70.10;;;;;;10221847;28;20776;-71
2023/06/04 04:13:45;;;;;;;5.00;1.70;;;13.60;69.70;;;;;;10227785;28;20245;-70
2023/06/04 04:18:46;;;;;;;2.50;1.63;;;13.70;69.70;;;;;;10221446;28;20244;-70
2023/06/04 04:23:46;;;;;;;5.63;2.23;;;13.80;69.90;;;;;;10220142;28;20227;-69
2023/06/04 04:28:47;;;;;;;6.37;2.40;;;13.90;69.80;;;;;;10214103;28;20220;-69
2023/06/04 04:33:48;;;;;;;10.27;3.47;;;14.00;69.70;;;;;;10228373;28;20912;-70
2023/06/04 04:38:53;;;;;;;7.33;2.67;;;14.30;69.10;;;;;;10221825;28;20227;-70
2023/06/04 04:44:02;;;;;;;7.33;3.43;;;14.60;68.00;;;;;;10213780;28;20223;-70
2023/06/04 04:49:02;;;;;;;5.30;2.47;;;14.70;67.60;;;;;;10222577;28;20651;-70
2023/06/04 04:54:03;;;;;;;5.83;2.27;;;14.70;67.70;;;;;;10225658;28;20331;-69
2023/06/04 04:59:04;;;;;;;3.73;1.80;;;14.80;67.30;;;;;;10230387;28;20226;-68
2023/06/04 05:04:04;;;;;;;9.67;1.70;;;15.10;66.40;;;;;;10224523;28;20623;-70
2023/06/04 05:09:05;;;;;;;5.87;1.90;;;17.00;61.00;;;;;;10238075;28;20613;-70
2023/06/04 05:14:06;;;;;;;4.90;2.20;;;18.70;56.90;;;;;;10227789;28;20274;-70
2023/06/04 05:19:08;;;;;;;4.83;2.43;;;20.20;54.20;;;;;;10225268;28;20300;-69
2023/06/04 05:24:09;;;;;;;4.97;2.10;;;21.20;51.40;;;;;;10223011;28;20231;-71
2023/06/04 05:29:10;;;;;;;6.40;2.47;;;21.20;50.80;;;;;;10221369;28;20223;-70
2023/06/04 05:34:16;;;;;;;7.93;1.90;;;21.80;49.60;;;;;;10236563;28;20245;-70
2023/06/04 05:39:20;;;;;;;6.87;2.70;;;22.10;48.90;;;;;;10220581;28;20228;-70
2023/06/04 05:44:20;;;;;;;5.30;2.00;;;22.70;48.10;;;;;;10221847;28;20219;-69
2023/06/04 05:49:24;;;;;;;8.80;2.63;;;23.20;46.70;;;;;;10226698;28;20231;-69
2023/06/04 05:54:28;;;;;;;15.03;3.30;;;23.60;46.30;;;;;;10223287;28;20223;-70
2023/06/04 05:59:32;;;;;;;3.60;1.60;;;23.70;45.20;;;;;;10233321;28;20292;-69
2023/06/04 06:04:32;;;;;;;4.63;2.07;;;23.60;45.30;;;;;;10231409;28;20710;-70
2023/06/04 06:09:33;;;;;;;5.13;2.03;;;23.70;45.00;;;;;;10223363;28;20234;-70
2023/06/04 06:14:34;;;;;;;6.70;2.53;;;24.00;45.50;;;;;;10230642;28;20230;-70
2023/06/04 06:19:36;;;;;;;6.07;2.83;;;24.20;44.90;;;;;;10232899;28;20313;-70
2023/06/04 06:24:37;;;;;;;6.17;1.70;;;24.70;43.90;;;;;;10218304;28;20270;-70
2023/06/04 06:29:39;;;;;;;2.10;1.20;;;25.50;42.40;;;;;;10215091;28;20235;-72
2023/06/04 06:34:39;;;;;;;1.77;1.63;;;25.90;41.40;;;;;;10231719;28;20230;-70
2023/06/04 06:39:40;;;;;;;3.77;1.47;;;26.00;41.20;;;;;;10220076;28;20230;-70
2023/06/04 06:44:40;;;;;;;4.47;1.50;;;26.50;40.30;;;;;;10224632;28;20222;-70
2023/06/04 06:49:41;;;;;;;3.10;1.57;;;26.30;39.80;;;;;;10217932;28;20255;-69
2023/06/04 06:54:42;;;;;;;4.10;1.70;;;27.40;39.30;;;;;;10228521;28;20215;-70
2023/06/04 06:59:42;;;;;;;3.97;1.73;;;27.90;37.60;;;;;;10231273;28;20222;-69
2023/06/04 07:04:44;;;;;;;4.00;1.50;;;27.70;37.60;;;;;;10224147;28;20236;-70
2023/06/04 07:09:45;;;;;;;2.20;1.53;;;27.70;37.50;;;;;;10223603;28;20220;-70
2023/06/04 07:14:45;;;;;;;6.83;1.83;;;28.40;37.10;;;;;;10227975;28;20310;-72
2023/06/04 07:19:46;;;;;;;3.00;1.67;;;28.10;37.50;;;;;;10215529;28;20230;-70
2023/06/04 07:24:46;;;;;;;2.23;1.60;;;28.00;37.40;;;;;;10214675;28;20243;-72
2023/06/04 07:29:47;;;;;;;4.90;1.80;;;27.70;37.60;;;;;;10228814;28;20219;-71
2023/06/04 07:34:47;;;;;;;1.90;1.70;;;26.80;39.00;;;;;;10229062;28;20596;-70
2023/06/04 07:39:48;;;;;;;8.77;1.70;;;26.60;40.00;;;;;;10216321;28;20224;-71
2023/06/04 07:44:49;;;;;;;2.90;1.90;;;27.20;39.70;;;;;;10220730;28;20226;-70
2023/06/04 07:49:50;;;;;;;2.33;1.40;;;27.40;38.70;;;;;;10222908;28;20244;-71
2023/06/04 07:54:51;;;;;;;7.20;1.63;;;28.60;37.60;;;;;;10219439;28;20225;-71
2023/06/04 07:59:52;;;;;;;4.27;1.80;;;28.50;37.70;;;;;;10220143;28;20825;-69
2023/06/04 08:04:52;;;;;;;2.00;1.80;;;28.20;37.30;;;;;;10224713;28;20282;-69
2023/06/04 08:09:53;;;;;;;3.70;1.70;;;28.80;37.90;;;;;;10216979;28;20717;-69
2023/06/04 08:14:56;;;;;;;4.40;1.57;;;30.00;36.40;;;;;;10219460;28;20220;-70
2023/06/04 08:19:57;;;;;;;3.13;1.60;;;29.60;35.90;;;;;;10216676;28;20227;-70
2023/06/04 08:24:58;;;;;;;3.17;1.63;;;29.80;34.90;;;;;;10223990;28;20234;-71
2023/06/04 08:29:58;;;;;;;4.70;1.80;;;29.40;34.80;;;;;;10225765;28;20223;-70
2023/06/04 08:34:59;;;;;;;4.70;1.90;;;30.00;35.00;;;;;;10223545;28;20245;-70
2023/06/04 08:39:59;;;;;;;3.77;1.60;;;30.40;34.90;;;;;;10232208;28;20318;-70
2023/06/04 08:45:00;;;;;;;2.93;1.50;;;30.90;34.60;;;;;;10233954;28;20235;-69
2023/06/04 08:50:02;;;;;;;4.67;1.47;;;31.70;34.50;;;;;;10223620;28;20693;-71
2023/06/04 08:55:03;;;;;;;2.60;1.70;;;32.10;32.20;;;;;;10223078;28;20280;-71
2023/06/04 09:00:07;;;;;;;7.97;1.70;;;32.40;32.00;;;;;;10235014;28;20219;-71
2023/06/04 09:05:09;;;;;;;4.53;1.60;;;32.30;32.70;;;;;;10225664;28;20218;-71
2023/06/04 09:10:12;;;;;;;4.70;1.80;;;32.80;32.20;;;;;;10231435;28;20218;-70
2023/06/04 09:15:13;;;;;;;1.80;1.40;;;33.00;31.50;;;;;;10230777;28;20199;-70
2023/06/04 09:20:24;;;;;;;4.20;1.43;;;33.40;30.50;;;;;;10226361;28;20203;-70
2023/06/04 09:25:26;;;;;;;3.20;1.67;;;33.10;30.80;;;;;;10227363;28;20301;-70
2023/06/04 09:30:27;;;;;;;4.70;1.60;;;33.50;30.60;;;;;;10220113;28;20316;-70
2023/06/04 09:35:27;;;;;;;3.77;1.30;;;33.50;30.20;;;;;;10225039;28;20644;-70
2023/06/04 09:40:38;;;;;;;5.83;1.80;;;32.30;32.10;;;;;;10214710;28;20238;-70
2023/06/04 09:45:38;;;;;;;1.90;1.60;;;31.30;32.30;;;;;;10218070;28;20227;-71
2023/06/04 09:50:41;;;;;;;2.13;1.60;;;31.50;32.90;;;;;;10233168;28;20598;-70
2023/06/04 09:55:42;;;;;;;4.90;1.40;;;33.10;30.80;;;;;;10224263;28;20230;-71
2023/06/04 10:00:45;;;;;;;3.00;1.73;;;33.40;29.80;;;;;;10217601;28;20311;-70
2023/06/04 10:05:46;;;;;;;2.37;1.40;;;32.10;31.90;;;;;;10233093;28;20258;-70
2023/06/04 10:10:49;;;;;;;2.03;1.47;;;31.80;30.00;;;;;;10225030;28;20262;-70
2023/06/04 10:15:50;;;;;;;4.40;1.80;;;32.40;29.60;;;;;;10216357;28;20227;-70
2023/06/04 10:20:55;;;;;;;3.67;1.50;;;32.70;29.30;;;;;;10219479;28;20236;-70
2023/06/04 10:25:56;;;;;;;3.73;1.80;;;32.90;29.10;;;;;;10231605;28;20600;-70
2023/06/04 10:30:56;;;;;;;3.43;1.40;;;33.60;29.50;;;;;;10222276;28;20258;-71
2023/06/04 10:35:57;;;;;;;3.47;1.70;;;35.90;27.60;;;;;;10219163;28;20223;-70
2023/06/04 10:40:58;;;;;;;3.33;1.80;;;35.60;27.20;;;;;;10222275;28;20240;-69
2023/06/04 10:46:10;;;;;;;2.37;1.60;;;35.80;27.20;;;;;;10226899;28;20690;-70
2023/06/04 10:51:11;;;;;;;3.50;1.60;;;34.60;27.60;;;;;;10233807;28;20238;-70
2023/06/04 10:56:11;;;;;;;4.57;2.10;;;33.60;28.20;;;;;;10225920;28;20228;-70
2023/06/04 11:01:26;;;;;;;3.83;1.67;;;33.10;28.60;;;;;;10223591;28;20220;-68
2023/06/04 11:06:27;;;;;;;3.07;1.40;;;34.10;29.20;;;;;;10222451;28;20306;-70
2023/06/04 11:11:28;;;;;;;8.30;1.87;;;35.00;26.80;;;;;;10219873;28;20252;-70
2023/06/04 11:16:32;;;;;;;2.77;1.60;;;34.90;26.80;;;;;;10229329;28;20313;-71
2023/06/04 11:21:36;;;;;;;3.33;1.77;;;35.40;26.20;;;;;;10215885;28;20247;-69
2023/06/04 11:26:37;;;;;;;5.17;1.50;;;34.40;27.10;;;;;;10230052;28;20219;-72
2023/06/04 11:31:45;;;;;;;3.57;1.70;;;35.70;26.40;;;;;;10221966;28;20235;-70
2023/06/04 11:36:46;;;;;;;5.63;1.90;;;35.40;26.60;;;;;;10215514;28;20220;-70
2023/06/04 11:41:48;;;;;;;2.57;2.20;;;32.70;29.10;;;;;;10229520;28;20242;-70
2023/06/04 11:46:52;;;;;;;2.70;1.70;;;30.40;30.00;;;;;;10220584;28;20250;-70
2023/06/04 11:51:53;;;;;;;2.73;1.60;;;29.70;31.70;;;;;;10226183;28;20239;-70
2023/06/04 11:56:54;;;;;;;5.17;1.60;;;29.40;32.00;;;;;;10228085;28;20315;-70
2023/06/04 12:01:55;;;;;;;3.23;1.60;;;28.20;32.30;;;;;;10222399;28;20710;-71
2023/06/04 12:07:01;;;;;;;3.53;1.60;;;27.70;33.00;;;;;;10226388;28;20229;-70
2023/06/04 12:12:07;;;;;;;3.40;1.43;;;27.30;34.50;;;;;;10213890;28;20304;-68
2023/06/04 12:17:08;;;;;;;3.53;1.90;;;27.20;34.40;;;;;;10224079;28;20227;-70
2023/06/04 12:22:09;;;;;;;4.23;1.73;;;26.50;34.90;;;;;;10213255;28;20261;-70
2023/06/04 12:27:09;;;;;;;3.60;1.70;;;26.80;33.50;;;;;;10223794;28;20310;-71
2023/06/04 12:32:15;;;;;;;3.03;1.90;;;27.30;33.40;;;;;;10216646;28;20289;-70
2023/06/04 12:37:15;;;;;;;3.23;1.70;;;27.70;33.00;;;;;;10218213;28;20289;-71
2023/06/04 12:42:18;;;;;;;3.17;1.93;;;27.10;33.30;;;;;;10218548;28;20228;-69
2023/06/04 12:47:20;;;;;;;3.40;1.60;;;26.40;34.20;;;;;;10223783;28;20310;-69
2023/06/04 12:52:21;;;;;;;3.00;1.67;;;26.10;34.60;;;;;;10245306;28;20230;-70
2023/06/04 12:57:21;;;;;;;2.53;1.60;;;26.30;34.40;;;;;;10219905;28;20276;-70
2023/06/04 13:02:22;;;;;;;3.67;1.87;;;25.90;33.70;;;;;;10219407;28;20579;-69
2023/06/04 13:07:23;;;;;;;4.07;1.97;;;25.70;33.60;;;;;;10220049;28;20311;-70
2023/06/04 13:12:23;;;;;;;3.73;1.80;;;25.70;34.50;;;;;;10223609;28;20324;-69
2023/06/04 13:17:24;;;;;;;3.10;2.00;;;25.90;34.50;;;;;;10229322;28;20241;-69
2023/06/04 13:22:24;;;;;;;2.30;1.93;;;25.60;34.50;;;;;;10219778;28;20311;-70
2023/06/04 13:27:25;;;;;;;3.53;1.67;;;25.40;35.10;;;;;;10225807;28;20648;-70
2023/06/04 13:32:25;;;;;;;2.13;1.70;;;25.60;34.70;;;;;;10224414;28;20235;-70
2023/06/04 13:37:26;;;;;;;3.30;2.00;;;25.70;32.70;;;;;;10226669;28;20273;-69
2023/06/04 13:42:26;;;;;;;1.97;1.80;;;25.50;31.40;;;;;;10225511;28;20231;-70
2023/06/04 13:47:27;;;;;;;4.77;1.93;;;25.40;32.80;;;;;;10237285;28;20220;-69
2023/06/04 13:52:30;;;;;;;4.40;1.90;;;25.60;33.40;;;;;;10226917;28;20228;-70
2023/06/04 13:57:31;;;;;;;5.33;1.93;;;25.60;34.40;;;;;;10224389;28;20227;-69
2023/06/04 14:02:31;;;;;;;2.93;1.90;;;25.80;34.50;;;;;;10216725;28;20224;-69
2023/06/04 14:07:32;;;;;;;3.20;2.00;;;25.90;35.00;;;;;;10232242;28;20276;-70
2023/06/04 14:12:33;;;;;;;2.80;1.70;;;25.90;34.70;;;;;;10217945;28;20262;-70
2023/06/04 14:17:34;;;;;;;4.73;1.97;;;25.80;35.10;;;;;;10224597;28;20243;-70
2023/06/04 14:22:39;;;;;;;4.00;1.67;;;26.00;34.80;;;;;;10223569;28;20310;-70
2023/06/04 14:27:39;;;;;;;3.00;2.03;;;25.90;34.90;;;;;;10217337;28;20223;-70
2023/06/04 14:32:40;;;;;;;4.10;2.03;;;26.10;34.90;;;;;;10216794;28;20286;-70
2023/06/04 14:37:40;;;;;;;2.57;1.77;;;25.80;35.70;;;;;;10223486;28;20219;-71
2023/06/04 14:42:41;;;;;;;3.40;2.20;;;25.50;35.70;;;;;;10224290;28;20700;-69
2023/06/04 14:47:41;;;;;;;2.20;2.00;;;25.60;36.40;;;;;;10215452;28;20216;-70
2023/06/04 14:52:42;;;;;;;3.17;2.30;;;25.30;36.10;;;;;;10223535;28;20231;-70
2023/06/04 14:57:43;;;;;;;5.07;1.80;;;25.10;37.40;;;;;;10230797;28;20604;-70
2023/06/04 15:02:44;;;;;;;7.87;2.70;;;25.30;37.00;;;;;;10231643;28;20253;-70
2023/06/04 15:07:45;;;;;;;3.50;1.77;;;25.50;36.50;;;;;;10230179;28;20216;-70
2023/06/04 15:12:45;;;;;;;2.10;1.90;;;25.40;36.20;;;;;;10221796;28;20698;-70
2023/06/04 15:17:47;;;;;;;2.67;2.00;;;25.00;36.40;;;;;;10223907;28;20781;-70
2023/06/04 15:22:47;;;;;;;3.93;2.00;;;24.70;37.00;;;;;;10216842;28;20216;-71
2023/06/04 15:27:48;;;;;;;1.80;1.70;;;24.90;37.20;;;;;;10222756;28;20296;-70
2023/06/04 15:32:48;;;;;;;3.53;1.93;;;24.70;37.30;;;;;;10221734;28;20580;-71
2023/06/04 15:37:49;;;;;;;2.40;2.03;;;24.50;37.80;;;;;;10227923;28;20226;-69
2023/06/04 15:42:50;;;;;;;2.63;1.70;;;24.40;38.00;;;;;;10221166;28;20234;-69
2023/06/04 15:47:51;;;;;;;2.43;1.90;;;24.30;37.70;;;;;;10213543;28;20274;-68
2023/06/04 15:52:52;;;;;;;2.20;1.90;;;24.30;38.50;;;;;;10214869;28;20234;-69
2023/06/04 15:57:52;;;;;;;3.93;2.13;;;24.40;38.60;;;;;;10222266;28;20220;-69
2023/06/04 16:02:53;;;;;;;4.37;1.77;;;24.50;38.50;;;;;;10227071;28;20226;-69
2023/06/04 16:07:53;;;;;;;2.77;1.70;;;24.60;38.20;;;;;;10222313;28;20721;-69
2023/06/04 16:12:54;;;;;;;4.53;1.90;;;24.70;38.20;;;;;;10219383;28;20231;-69
2023/06/04 16:17:55;;;;;;;3.87;1.80;;;24.70;38.00;;;;;;10215459;28;20315;-69
2023/06/04 16:22:55;;;;;;;6.27;2.10;;;24.70;37.30;;;;;;10225057;28;20265;-69
2023/06/04 16:27:56;;;;;;;3.77;1.90;;;24.70;37.40;;;;;;10214656;28;20223;-70
2023/06/04 16:32:56;;;;;;;2.20;2.00;;;24.90;37.90;;;;;;10217384;28;20314;-70
2023/06/04 16:37:57;;;;;;;3.30;1.80;;;25.00;37.70;;;;;;10214707;28;20750;-70
2023/06/04 16:42:58;;;;;;;2.10;1.90;;;25.00;37.80;;;;;;10219972;28;20258;-70
2023/06/04 16:47:58;;;;;;;3.10;2.10;;;25.00;38.50;;;;;;10222722;28;20622;-70
2023/06/04 16:52:59;;;;;;;2.70;2.10;;;24.80;38.50;;;;;;10228952;28;20288;-69
2023/06/04 16:58:00;;;;;;;5.40;2.47;;;24.70;38.70;;;;;;10232049;28;20227;-70
2023/06/04 17:03:01;;;;;;;2.83;2.20;;;24.70;39.00;;;;;;10238414;28;20777;-70
2023/06/04 17:08:01;;;;;;;2.30;2.10;;;24.60;39.30;;;;;;10223820;28;20228;-70
2023/06/04 17:13:02;;;;;;;4.70;2.57;;;24.70;39.60;;;;;;10227183;28;20791;-69
2023/06/04 17:18:10;;;;;;;5.43;2.30;;;24.50;39.40;;;;;;10221076;28;20307;-70
2023/06/04 17:23:24;;;;;;;3.83;3.00;;;24.40;39.90;;;;;;10228482;28;20228;-70
2023/06/04 17:28:26;;;;;;;5.53;2.63;;;24.30;40.40;;;;;;10226718;28;20285;-70
2023/06/04 17:33:26;;;;;;;3.33;2.70;;;24.20;39.70;;;;;;10223955;28;20230;-70
2023/06/04 17:38:27;;;;;;;9.03;3.03;;;24.20;40.30;;;;;;10230736;28;20746;-71
2023/06/04 17:43:28;;;;;;;4.67;2.90;;;24.10;40.60;;;;;;10224224;28;20227;-70
2023/06/04 17:48:28;;;;;;;5.70;3.00;;;24.00;41.30;;;;;;10219464;28;20811;-70
2023/06/04 17:53:29;;;;;;;3.20;2.90;;;23.90;41.50;;;;;;10222287;28;20234;-69
2023/06/04 17:58:30;;;;;;;5.37;3.07;;;23.80;41.70;;;;;;10229674;28;20225;-69
2023/06/04 18:03:31;;;;;;;4.57;2.90;;;23.60;41.80;;;;;;10224133;28;20264;-71
2023/06/04 18:08:32;;;;;;;7.07;2.80;;;23.50;42.50;;;;;;10232171;28;20227;-70
2023/06/04 18:13:32;;;;;;;3.63;2.60;;;23.30;42.50;;;;;;10218193;28;20228;-69
2023/06/04 18:18:33;;;;;;;6.00;2.57;;;23.30;43.30;;;;;;10225081;28;20744;-70
2023/06/04 18:23:33;;;;;;;7.20;4.20;;;23.20;43.20;;;;;;10225789;28;20219;-70
2023/06/04 18:28:34;;;;;;;6.63;2.70;;;23.00;43.50;;;;;;10216602;28;20566;-70
2023/06/04 18:33:37;;;;;;;3.87;2.47;;;23.00;44.00;;;;;;10224608;28;20227;-70
2023/06/04 18:38:38;;;;;;;7.33;2.30;;;22.80;44.30;;;;;;10224969;28;20913;-70
2023/06/04 18:43:39;;;;;;;4.10;2.50;;;22.70;44.60;;;;;;10225071;28;20235;-70
2023/06/04 18:48:40;;;;;;;3.57;2.20;;;22.50;45.00;;;;;;10215256;28;20224;-69
2023/06/04 18:53:40;;;;;;;5.73;2.40;;;22.40;45.40;;;;;;10231774;28;20240;-69
2023/06/04 18:58:44;;;;;;;3.40;2.17;;;22.30;45.70;;;;;;10237666;28;20235;-70
2023/06/04 19:03:45;;;;;;;2.50;2.30;;;22.10;46.10;;;;;;10221283;28;20302;-69
2023/06/04 19:08:45;;;;;;;4.90;2.40;;;22.00;46.40;;;;;;10222992;28;20722;-68
2023/06/04 19:13:46;;;;;;;2.77;1.90;;;21.80;46.70;;;;;;10223069;28;20238;-70
2023/06/04 19:18:47;;;;;;;3.67;2.13;;;21.70;46.90;;;;;;10220960;28;20277;-71
2023/06/04 19:23:47;;;;;;;2.77;1.80;;;21.50;46.90;;;;;;10223998;28;20224;-69
2023/06/04 19:28:48;;;;;;;10.03;2.33;;;21.40;47.20;;;;;;10219314;28;20223;-68
2023/06/04 19:33:48;;;;;;;5.73;1.90;;;21.20;47.30;;;;;;10229135;28;20235;-70
2023/06/04 19:38:49;;;;;;;2.80;1.90;;;21.10;47.90;;;;;;10222615;28;20224;-69
2023/06/04 19:43:50;;;;;;;2.30;1.90;;;20.90;48.30;;;;;;10229035;28;20239;-70
2023/06/04 19:48:50;;;;;;;2.33;1.90;;;20.70;48.50;;;;;;10215156;28;20318;-69
2023/06/04 19:53:51;;;;;;;4.60;1.80;;;20.60;48.70;;;;;;10214483;28;20259;-70
2023/06/04 19:58:52;;;;;;;3.53;1.87;;;20.50;49.70;;;;;;10219947;28;20573;-69
2023/06/04 20:03:52;;;;;;;6.00;1.70;;;20.30;49.40;;;;;;10229113;28;20215;-69
2023/06/04 20:08:53;;;;;;;2.30;1.77;;;20.20;49.60;;;;;;10216812;28;20216;-70
2023/06/04 20:13:53;;;;;;;2.77;1.60;;;20.00;50.10;;;;;;10215284;28;20726;-70
2023/06/04 20:18:54;;;;;;;6.17;1.80;;;19.90;50.30;;;;;;10234510;28;20262;-70
2023/06/04 20:23:55;;;;;;;2.63;1.63;;;19.80;50.80;;;;;;10222974;28;20216;-69
2023/06/04 20:28:56;;;;;;;2.50;1.63;;;19.60;50.90;;;;;;10221357;28;20706;-69
2023/06/04 20:33:57;;;;;;;2.37;1.60;;;19.60;51.40;;;;;;10226924;28;20226;-69
2023/06/04 20:38:57;;;;;;;2.60;1.53;;;19.40;51.30;;;;;;10236514;28;20293;-69
2023/06/04 20:43:58;;;;;;;1.73;1.50;;;19.30;51.50;;;;;;10232863;28;20274;-70
2023/06/04 20:49:00;;;;;;;3.93;2.10;;;19.20;51.80;;;;;;10219584;28;20217;-69
2023/06/04 20:54:01;;;;;;;3.47;1.97;;;19.10;52.00;;;;;;10230076;28;20242;-69
2023/06/04 20:59:02;;;;;;;2.17;1.70;;;19.00;52.30;;;;;;10228603;28;20245;-69
2023/06/04 21:04:03;;;;;;;4.33;1.40;;;18.90;52.50;;;;;;10231700;28;20765;-69
2023/06/04 21:09:05;;;;;;;5.93;1.80;;;18.80;52.80;;;;;;10229837;28;20226;-69
2023/06/04 21:14:06;;;;;;;7.37;3.00;;;18.70;52.80;;;;;;10230849;28;20649;-69
2023/06/04 21:19:07;;;;;;;6.43;3.20;;;18.70;53.00;;;;;;10222512;28;20228;-70
2023/06/04 21:24:07;;;;;;;8.83;3.80;;;18.70;53.00;;;;;;10233048;28;20273;-70
2023/06/04 21:29:10;;;;;;;8.83;3.93;;;18.60;53.10;;;;;;10226598;28;20249;-69
2023/06/04 21:34:11;;;;;;;7.30;2.60;;;18.50;53.30;;;;;;10232640;28;20237;-71
2023/06/04 21:39:12;;;;;;;7.20;2.37;;;18.50;53.70;;;;;;10230549;28;20239;-70
2023/06/04 21:44:12;;;;;;;4.40;2.10;;;18.40;53.90;;;;;;10229839;28;20636;-69
2023/06/04 21:49:13;;;;;;;3.57;1.80;;;18.20;54.20;;;;;;10222695;28;20238;-69
2023/06/04 21:54:13;;;;;;;5.10;2.30;;;18.20;54.60;;;;;;10228713;28;20239;-69
2023/06/04 21:59:14;;;;;;;9.50;2.73;;;18.00;54.80;;;;;;10226118;28;20275;-70
2023/06/04 22:04:14;;;;;;;5.93;3.13;;;17.90;55.20;;;;;;10224265;28;20222;-70
2023/06/04 22:09:16;;;;;;;4.63;2.17;;;17.90;55.50;;;;;;10220560;28;20610;-69
2023/06/04 22:14:16;;;;;;;3.20;2.00;;;17.70;55.70;;;;;;10228993;28;20230;-70
2023/06/04 22:19:17;;;;;;;3.20;1.83;;;17.70;56.00;;;;;;10225826;28;20230;-70
2023/06/04 22:24:17;;;;;;;2.47;1.80;;;17.60;56.40;;;;;;10225425;28;20281;-70
2023/06/04 22:29:19;;;;;;;2.27;1.80;;;17.50;56.70;;;;;;10219531;28;20238;-69
2023/06/04 22:34:19;;;;;;;6.47;2.50;;;17.40;56.90;;;;;;10230518;28;20223;-69
2023/06/04 22:39:20;;;;;;;5.77;2.60;;;17.30;57.20;;;;;;10220191;28;20699;-70
2023/06/04 22:44:21;;;;;;;5.30;2.13;;;17.20;57.60;;;;;;10217136;28;20309;-70
2023/06/04 22:49:21;;;;;;;4.80;2.60;;;17.10;57.80;;;;;;10223311;28;20673;-69
2023/06/04 22:54:22;;;;;;;7.47;2.80;;;17.00;57.90;;;;;;10230511;28;20750;-69
2023/06/04 22:59:22;;;;;;;7.40;2.70;;;17.00;58.30;;;;;;10224807;28;20227;-71
2023/06/04 23:04:23;;;;;;;4.37;2.10;;;16.90;58.50;;;;;;10232393;28;20230;-70
2023/06/04 23:09:23;;;;;;;4.80;1.83;;;16.80;58.60;;;;;;10225362;28;20310;-70
2023/06/04 23:14:24;;;;;;;2.47;1.70;;;16.70;58.70;;;;;;10226310;28;20729;-69
2023/06/04 23:19:25;;;;;;;2.27;1.67;;;16.60;59.00;;;;;;10222310;28;20218;-69
2023/06/04 23:24:26;;;;;;;3.23;1.80;;;16.50;59.00;;;;;;10224683;28;20235;-70
2023/06/04 23:29:27;;;;;;;2.10;1.63;;;16.50;59.30;;;;;;10225149;28;20228;-69
2023/06/04 23:34:27;;;;;;;3.87;2.30;;;16.40;59.70;;;;;;10222283;28;20280;-69
2023/06/04 23:39:28;;;;;;;3.23;1.80;;;16.30;60.00;;;;;;10216793;28;20238;-70
2023/06/04 23:44:28;;;;;;;2.37;1.60;;;16.10;60.00;;;;;;10229513;28;20701;-70
2023/06/04 23:49:29;;;;;;;3.23;1.50;;;16.10;60.40;;;;;;10222597;28;20215;-70
2023/06/04 23:54:29;;;;;;;5.53;1.83;;;16.10;60.80;;;;;;10227903;28;20277;-70
2023/06/04 23:59:30;;;;;;;2.23;1.50;;;16.00;61.10;;;;;;10222690;28;20224;-69
